TAF Text Data
IDs:
Format:
Raw Decoded Include METAR

Data at: 0713 UTC 23 Oct 2018

KSAF 230653Z AUTO 12007KT 10SM CLR 11/06 A3024 RMK AO2 SLP165 T01110056 402060067

KSAF 230525Z 2306/2406 14008KT P6SM FEW060 BKN200
  FM231200 VRB05KT P6SM VCSH SCT040 BKN060
  FM232100 34007KT P6SM VCTS SCT035CB OVC050
  FM240000 07008KT 5SM -RA BR BKN025